createdAt,value
2023-04-18T00:00:35.947Z,23.5077
2023-04-18T00:01:38.274Z,25.3231
2023-04-18T00:02:40.752Z,25.8846
2023-04-18T00:03:43.223Z,27.0500
2023-04-18T00:04:45.544Z,25.4250
2023-04-18T00:05:47.580Z,23.7250
2023-04-18T00:06:49.922Z,23.8077
2023-04-18T00:07:52.249Z,25.4615
2023-04-18T00:08:54.615Z,24.9385
2023-04-18T00:09:56.926Z,24.8000
2023-04-18T00:10:59.243Z,24.7615
2023-04-18T00:12:01.593Z,25.8615
2023-04-18T00:13:03.933Z,23.8462
2023-04-18T00:14:06.252Z,22.5154
2023-04-18T00:15:08.588Z,23.2000
2023-04-18T00:16:10.958Z,24.7231
2023-04-18T00:17:13.313Z,24.6385
2023-04-18T00:18:15.599Z,25.0077
2023-04-18T00:19:17.924Z,25.4538
2023-04-18T00:20:20.257Z,25.7692
2023-04-18T00:21:22.679Z,25.4615
2023-04-18T00:22:24.931Z,25.9846
2023-04-18T00:23:27.284Z,24.0231
2023-04-18T00:24:29.593Z,25.2923
2023-04-18T00:25:31.928Z,24.9154
2023-04-18T00:26:34.260Z,24.0462
2023-04-18T00:27:36.599Z,24.9692
2023-04-18T00:28:38.937Z,24.0231
2023-04-18T00:29:41.269Z,24.9231
2023-04-18T00:30:43.643Z,25.4154
2023-04-18T00:31:45.995Z,25.9385
2023-04-18T00:32:48.323Z,23.1692
2023-04-18T00:33:50.666Z,24.4769
2023-04-18T00:34:52.953Z,25.6846
2023-04-18T00:35:55.281Z,25.7154
2023-04-18T00:36:57.624Z,25.6462
2023-04-18T00:37:59.952Z,24.3692
2023-04-18T00:39:02.338Z,23.7462
2023-04-18T00:40:04.625Z,26.1385
2023-04-18T00:41:06.960Z,24.5154
2023-04-18T00:42:09.298Z,25.3000
2023-04-18T00:43:11.624Z,25.8615
2023-04-18T00:44:14.226Z,24.6615
2023-04-18T00:45:16.290Z,25.1250
2023-04-18T00:46:18.672Z,23.6538
2023-04-18T00:47:20.981Z,23.8077
2023-04-18T00:48:23.303Z,25.0769
2023-04-18T00:49:25.647Z,25.1692
2023-04-18T00:50:27.981Z,23.9385
2023-04-18T00:51:30.295Z,24.3615
2023-04-18T00:52:32.629Z,24.6846
2023-04-18T00:53:34.962Z,25.1923
2023-04-18T00:54:37.310Z,23.3462
2023-04-18T00:55:39.641Z,22.2231
2023-04-18T00:56:41.977Z,24.5769
2023-04-18T00:57:44.310Z,25.7769
2023-04-18T00:58:46.646Z,24.6077
2023-04-18T00:59:49.002Z,25.4923
2023-04-18T01:00:51.315Z,24.7769
2023-04-18T01:01:53.833Z,25.3538
2023-04-18T01:02:56.174Z,26.3692
2023-04-18T01:03:58.409Z,26.4500
2023-04-18T01:05:00.732Z,25.0846
2023-04-18T01:06:03.021Z,26.2000
2023-04-18T01:07:05.341Z,25.0615
2023-04-18T01:08:07.672Z,26.8846
2023-04-18T01:09:10.006Z,27.0000
2023-04-18T01:10:12.355Z,28.0846
2023-04-18T01:11:14.686Z,26.1154
2023-04-18T01:12:17.031Z,26.5385
2023-04-18T01:13:19.347Z,27.2923
2023-04-18T01:14:21.680Z,27.2692
2023-04-18T01:15:24.085Z,27.1692
2023-04-18T01:16:26.441Z,26.7462
2023-04-18T01:17:28.724Z,28.4615
2023-04-18T01:18:31.010Z,26.9154
2023-04-18T01:19:33.341Z,26.2846
2023-04-18T01:20:35.681Z,27.7231
2023-04-18T01:21:37.996Z,29.0077
2023-04-18T01:22:40.374Z,26.3615
2023-04-18T01:23:42.670Z,27.5231
2023-04-18T01:24:45.007Z,29.0000
2023-04-18T01:25:47.373Z,29.2769
2023-04-18T01:26:49.670Z,29.4308
2023-04-18T01:27:52.027Z,28.7692
2023-04-18T01:28:54.344Z,29.0692
2023-04-18T01:29:56.684Z,27.6308
2023-04-18T01:30:59.049Z,27.5769
2023-04-18T01:32:01.400Z,29.3154
2023-04-18T01:33:03.739Z,30.5308
2023-04-18T01:34:06.043Z,30.2846
2023-04-18T01:35:08.376Z,29.3308
2023-04-18T01:36:10.707Z,30.2692
2023-04-18T01:37:13.034Z,28.8462
2023-04-18T01:38:15.384Z,27.6154
2023-04-18T01:39:17.706Z,27.1462
2023-04-18T01:40:20.043Z,28.0231
2023-04-18T01:41:22.376Z,27.6923
2023-04-18T01:42:24.717Z,28.3308
2023-04-18T01:43:27.211Z,27.3308
2023-04-18T01:44:29.440Z,26.6538
2023-04-18T01:45:31.721Z,24.9385
2023-04-18T01:46:34.054Z,26.6385
2023-04-18T01:47:36.407Z,26.2846
2023-04-18T01:48:38.709Z,26.0077
2023-04-18T01:49:41.060Z,27.1538
2023-04-18T01:50:43.403Z,26.7462
2023-04-18T01:51:45.735Z,25.6692
2023-04-18T01:52:48.052Z,28.5462
2023-04-18T01:53:50.382Z,27.3154
2023-04-18T01:54:52.728Z,28.7385
2023-04-18T01:55:55.062Z,30.4923
2023-04-18T01:56:57.413Z,28.2462
2023-04-18T01:57:59.734Z,28.3000
2023-04-18T01:59:02.073Z,27.8538
2023-04-18T02:00:04.436Z,27.7231
2023-04-18T02:01:06.773Z,28.3308
2023-04-18T02:02:09.168Z,29.8231
2023-04-18T02:03:11.511Z,25.1769
2023-04-18T02:04:14.124Z,24.9923
2023-04-18T02:05:16.084Z,26.7083
2023-04-18T02:06:18.404Z,25.7308
2023-04-18T02:07:20.780Z,26.5462
2023-04-18T02:08:23.065Z,27.1308
2023-04-18T02:09:25.409Z,25.6769
2023-04-18T02:10:27.735Z,26.0231
2023-04-18T02:11:30.077Z,27.4154
2023-04-18T02:12:32.424Z,26.5000
2023-04-18T02:13:34.750Z,26.3308
2023-04-18T02:14:37.109Z,25.1385
2023-04-18T02:15:39.417Z,26.8462
2023-04-18T02:16:41.782Z,27.4769
2023-04-18T02:17:44.188Z,26.4769
2023-04-18T02:18:46.422Z,26.3615
2023-04-18T02:19:48.756Z,27.3154
2023-04-18T02:20:51.097Z,26.3615
2023-04-18T02:21:53.424Z,27.1308
2023-04-18T02:22:55.770Z,25.8000
2023-04-18T02:23:58.095Z,25.6231
2023-04-18T02:25:00.439Z,26.5308
2023-04-18T02:26:02.808Z,24.8385
2023-04-18T02:27:05.101Z,25.9077
2023-04-18T02:28:07.436Z,26.5846
2023-04-18T02:29:09.779Z,27.5538
2023-04-18T02:30:12.106Z,27.2077
2023-04-18T02:31:14.560Z,27.0692
2023-04-18T02:32:16.778Z,27.1833
2023-04-18T02:33:19.123Z,25.4077
2023-04-18T02:34:21.431Z,26.0769
2023-04-18T02:35:23.765Z,26.2923
2023-04-18T02:36:26.121Z,22.9308
2023-04-18T02:37:28.437Z,24.1846
2023-04-18T02:38:30.792Z,24.2923
2023-04-18T02:39:33.113Z,26.3231
2023-04-18T02:40:35.450Z,27.0923
2023-04-18T02:41:37.787Z,26.9538
2023-04-18T02:42:40.116Z,24.8000
2023-04-18T02:43:42.500Z,23.6538
2023-04-18T02:44:44.799Z,23.8923
2023-04-18T02:45:47.142Z,25.6385
2023-04-18T02:46:49.471Z,24.1154
2023-04-18T02:47:56.027Z,24.1077
2023-04-18T02:48:54.147Z,25.1250
2023-04-18T02:49:56.486Z,25.3538
2023-04-18T02:50:58.826Z,23.2308
2023-04-18T02:52:01.258Z,23.8231
2023-04-18T02:53:03.508Z,23.7692
2023-04-18T02:54:05.833Z,24.9538
2023-04-18T02:55:08.163Z,25.0077
2023-04-18T02:56:10.499Z,24.4538
2023-04-18T02:57:12.841Z,25.4769
2023-04-18T02:58:15.191Z,26.5000
2023-04-18T02:59:17.506Z,26.1154
2023-04-18T03:00:19.845Z,25.9231
2023-04-18T03:01:22.213Z,24.8615
2023-04-18T03:02:24.560Z,24.7462
2023-04-18T03:03:26.921Z,26.9385
2023-04-18T03:04:29.224Z,27.1692
2023-04-18T03:05:31.528Z,28.0615
2023-04-18T03:06:33.869Z,27.4692
2023-04-18T03:07:36.265Z,26.5385
2023-04-18T03:08:38.553Z,25.4692
2023-04-18T03:09:40.884Z,26.2462
2023-04-18T03:10:43.207Z,27.3769
2023-04-18T03:11:45.558Z,26.4308
2023-04-18T03:12:47.887Z,27.1385
2023-04-18T03:13:50.238Z,26.6615
2023-04-18T03:14:52.565Z,25.5385
2023-04-18T03:15:54.896Z,25.7615
2023-04-18T03:16:57.239Z,28.3154
2023-04-18T03:17:59.616Z,26.8385
2023-04-18T03:19:01.915Z,27.5154
2023-04-18T03:20:04.236Z,27.7538
2023-04-18T03:21:06.570Z,28.5538
2023-04-18T03:22:08.906Z,25.5538
2023-04-18T03:23:11.242Z,28.4231
2023-04-18T03:24:13.768Z,28.3000
2023-04-18T03:25:15.913Z,25.9500
2023-04-18T03:26:18.247Z,26.8538
2023-04-18T03:27:20.586Z,27.7769
2023-04-18T03:28:22.928Z,27.8615
2023-04-18T03:29:25.275Z,28.9692
2023-04-18T03:30:27.611Z,29.9692
2023-04-18T03:31:29.978Z,29.4462
2023-04-18T03:32:32.312Z,28.7538
2023-04-18T03:33:34.645Z,28.9077
2023-04-18T03:34:36.975Z,29.5692
2023-04-18T03:35:39.314Z,26.8308
2023-04-18T03:36:41.684Z,28.2154
2023-04-18T03:37:44.008Z,28.8231
2023-04-18T03:38:46.338Z,30.0692
2023-04-18T03:39:48.683Z,28.8615
2023-04-18T03:40:51.006Z,26.1923
2023-04-18T03:41:53.357Z,27.5692
2023-04-18T03:42:55.679Z,26.9538
2023-04-18T03:43:58.025Z,27.4769
2023-04-18T03:45:00.371Z,28.9231
2023-04-18T03:46:02.811Z,27.8692
2023-04-18T03:47:05.125Z,29.7077
2023-04-18T03:48:07.448Z,29.5846
2023-04-18T03:49:09.797Z,30.4846
2023-04-18T03:50:12.154Z,27.9923
2023-04-18T03:51:14.473Z,27.7462
2023-04-18T03:52:16.801Z,28.2231
2023-04-18T03:53:19.137Z,28.3154
2023-04-18T03:54:21.503Z,27.9231
2023-04-18T03:55:23.827Z,28.7154
2023-04-18T03:56:26.160Z,27.2538
2023-04-18T03:57:28.500Z,28.6538
2023-04-18T03:58:30.840Z,27.5923
2023-04-18T03:59:33.177Z,27.5385
2023-04-18T04:00:35.538Z,28.2462
2023-04-18T04:01:37.865Z,29.7077
2023-04-18T04:02:40.402Z,28.6692
2023-04-18T04:03:42.756Z,29.5917
2023-04-18T04:04:44.954Z,29.6750
2023-04-18T04:05:47.243Z,30.1231
2023-04-18T04:06:49.554Z,29.5769
2023-04-18T04:07:51.900Z,27.9769
2023-04-18T04:08:54.236Z,30.6462
2023-04-18T04:09:56.595Z,31.1692
2023-04-18T04:10:59.032Z,29.0154
2023-04-18T04:12:01.270Z,30.4846
2023-04-18T04:13:03.602Z,31.7462
2023-04-18T04:14:05.943Z,30.6692
2023-04-18T04:15:08.297Z,29.0462
2023-04-18T04:16:10.668Z,31.3154
2023-04-18T04:17:12.990Z,30.6462
2023-04-18T04:18:15.333Z,30.9923
2023-04-18T04:19:17.658Z,32.7385
2023-04-18T04:20:20.005Z,30.8615
2023-04-18T04:21:22.335Z,28.2462
2023-04-18T04:22:24.669Z,29.3154
2023-04-18T04:23:27.000Z,29.1231
2023-04-18T04:24:29.459Z,29.5154
2023-04-18T04:25:31.677Z,28.9769
2023-04-18T04:26:34.024Z,28.2385
2023-04-18T04:27:36.344Z,27.1308
2023-04-18T04:28:38.688Z,26.6769
2023-04-18T04:29:41.029Z,27.1000
2023-04-18T04:30:43.424Z,26.9923
2023-04-18T04:31:45.708Z,28.1462
2023-04-18T04:32:48.114Z,29.3923
2023-04-18T04:33:50.372Z,27.3615
2023-04-18T04:34:52.722Z,28.8846
2023-04-18T04:35:55.118Z,27.5538
2023-04-18T04:36:57.454Z,28.5692
2023-04-18T04:37:59.735Z,26.5917
2023-04-18T04:39:02.973Z,28.0692
2023-04-18T04:40:04.607Z,29.1250
2023-04-18T04:41:06.759Z,30.9583
2023-04-18T04:42:09.081Z,31.0769
2023-04-18T04:43:11.419Z,31.2385
2023-04-18T04:44:13.999Z,31.3077
2023-04-18T04:45:16.144Z,31.0833
2023-04-18T04:46:18.537Z,30.9308
2023-04-18T04:47:20.767Z,31.5923
2023-04-18T04:48:23.104Z,31.6769
2023-04-18T04:49:25.452Z,29.5231
2023-04-18T04:50:27.782Z,29.4000
2023-04-18T04:51:30.116Z,32.0308
2023-04-18T04:52:32.459Z,30.9846
2023-04-18T04:53:34.799Z,30.4769
2023-04-18T04:54:37.200Z,30.8846
2023-04-18T04:55:39.481Z,31.4077
2023-04-18T04:56:41.836Z,31.2154
2023-04-18T04:57:44.160Z,29.5385
2023-04-18T04:58:46.495Z,31.9538
2023-04-18T04:59:48.849Z,31.2462
2023-04-18T05:00:51.378Z,29.5692
2023-04-18T05:01:53.641Z,29.7615
2023-04-18T05:02:55.991Z,28.9462
2023-04-18T05:03:58.316Z,31.4308
2023-04-18T05:05:00.564Z,32.2154
2023-04-18T05:06:03.453Z,31.4538
2023-04-18T05:07:05.215Z,29.2500
2023-04-18T05:08:07.550Z,29.6308
2023-04-18T05:09:09.895Z,31.0538
2023-04-18T05:10:12.251Z,29.5000
2023-04-18T05:11:14.589Z,32.7000
2023-04-18T05:12:17.028Z,31.5538
2023-04-18T05:13:19.901Z,32.3385
2023-04-18T05:14:21.595Z,32.3000
2023-04-18T05:15:23.929Z,34.0231
2023-04-18T05:16:26.300Z,33.2077
2023-04-18T05:17:28.665Z,32.1923
2023-04-18T05:18:32.551Z,31.7846
2023-04-18T05:19:33.285Z,32.2667
2023-04-18T05:20:35.622Z,32.1077
2023-04-18T05:21:37.962Z,33.6462
2023-04-18T05:22:40.303Z,31.8538
2023-04-18T05:23:42.641Z,31.9154
2023-04-18T05:24:44.987Z,32.1769
2023-04-18T05:25:47.326Z,33.5538
2023-04-18T05:26:49.686Z,33.3231
2023-04-18T05:27:52.038Z,31.6769
2023-04-18T05:28:54.358Z,32.2000
2023-04-18T05:29:56.689Z,32.4846
2023-04-18T05:30:59.063Z,32.7154
2023-04-18T05:32:01.401Z,33.8615
2023-04-18T05:33:03.724Z,33.1846
2023-04-18T05:34:06.027Z,33.3385
2023-04-18T05:35:08.359Z,33.6846
2023-04-18T05:36:10.696Z,33.2231
2023-04-18T05:37:13.057Z,34.0077
2023-04-18T05:38:15.374Z,32.8077
2023-04-18T05:39:17.719Z,32.1538
2023-04-18T05:40:20.057Z,32.3923
2023-04-18T05:41:22.400Z,31.3769
2023-04-18T05:42:24.749Z,31.4769
2023-04-18T05:43:27.085Z,31.8615
2023-04-18T05:44:29.410Z,32.2538
2023-04-18T05:45:31.753Z,33.0462
2023-04-18T05:46:34.136Z,33.6538
2023-04-18T05:47:36.462Z,34.3692
2023-04-18T05:48:38.770Z,34.4154
2023-04-18T05:49:41.103Z,32.7462
2023-04-18T05:50:43.448Z,33.6692
2023-04-18T05:51:45.780Z,32.7000
2023-04-18T05:52:48.133Z,33.3846
2023-04-18T05:53:50.453Z,33.7077
2023-04-18T05:54:52.800Z,33.5385
2023-04-18T05:55:55.158Z,32.9462
2023-04-18T05:56:57.472Z,31.5154
2023-04-18T05:57:59.805Z,31.1538
2023-04-18T05:59:02.345Z,30.6231
2023-04-18T06:00:04.508Z,30.7077
2023-04-18T06:01:06.833Z,31.4692
2023-04-18T06:02:09.233Z,32.5385
2023-04-18T06:03:11.829Z,31.9538
2023-04-18T06:04:14.351Z,31.7083
2023-04-18T06:05:16.367Z,32.3750
2023-04-18T06:06:18.518Z,32.4917
2023-04-18T06:07:20.854Z,34.2538
2023-04-18T06:08:23.187Z,31.1077
2023-04-18T06:09:25.534Z,31.4154
2023-04-18T06:10:27.884Z,32.8077
2023-04-18T06:11:30.215Z,31.9000
2023-04-18T06:12:32.543Z,32.0385
2023-04-18T06:13:34.890Z,31.8231
2023-04-18T06:14:37.254Z,31.6385
2023-04-18T06:15:39.571Z,32.2538
2023-04-18T06:16:41.950Z,33.1231
2023-04-18T06:17:44.283Z,31.8692
2023-04-18T06:18:46.567Z,32.1769
2023-04-18T06:19:48.932Z,32.5846
2023-04-18T06:20:51.257Z,32.4615
2023-04-18T06:21:53.604Z,33.0308
2023-04-18T06:22:55.928Z,33.7154
2023-04-18T06:23:58.277Z,33.4692
2023-04-18T06:25:00.612Z,33.2923
2023-04-18T06:26:02.971Z,34.4923
2023-04-18T06:27:05.295Z,35.9923
2023-04-18T06:28:07.644Z,34.4500
2023-04-18T06:29:09.965Z,34.2692
2023-04-18T06:30:12.300Z,31.3385
2023-04-18T06:31:14.688Z,33.1692
2023-04-18T06:32:16.981Z,33.3308
2023-04-18T06:33:19.334Z,32.2769
2023-04-18T06:34:21.664Z,34.4385
2023-04-18T06:35:26.361Z,31.8308
2023-04-18T06:36:26.357Z,34.1500
2023-04-18T06:37:28.689Z,31.1231
2023-04-18T06:38:31.028Z,33.4154
2023-04-18T06:39:33.364Z,34.8231
2023-04-18T06:40:35.752Z,33.4538
2023-04-18T06:41:38.047Z,35.5231
2023-04-18T06:42:40.390Z,32.9231
2023-04-18T06:43:52.064Z,35.3769
2023-04-18T06:44:45.074Z,33.4091
2023-04-18T06:45:47.539Z,34.5154
2023-04-18T06:46:49.748Z,34.5846
2023-04-18T06:47:52.091Z,34.1462
2023-04-18T06:48:54.415Z,34.7154
2023-04-18T06:49:56.750Z,32.2000
2023-04-18T06:50:59.089Z,34.9154
2023-04-18T06:52:01.424Z,33.6385
2023-04-18T06:53:03.761Z,33.3769
2023-04-18T06:54:06.095Z,33.5000
2023-04-18T06:55:08.432Z,31.7154
2023-04-18T06:56:10.766Z,32.3308
2023-04-18T06:57:13.105Z,31.9077
2023-04-18T06:58:15.438Z,33.4538
2023-04-18T06:59:17.772Z,33.4538
2023-04-18T07:00:20.107Z,35.8154
2023-04-18T07:01:22.606Z,35.4308
2023-04-18T07:02:24.922Z,35.2692
2023-04-18T07:03:27.316Z,35.4692
2023-04-18T07:04:29.524Z,32.9769
2023-04-18T07:05:31.796Z,33.3615
2023-04-18T07:06:34.140Z,34.3923
2023-04-18T07:07:36.485Z,33.6308
2023-04-18T07:08:38.805Z,33.8308
2023-04-18T07:09:41.188Z,32.9615
2023-04-18T07:10:43.487Z,33.5385
2023-04-18T07:11:45.847Z,34.7462
2023-04-18T07:12:48.160Z,33.9000
2023-04-18T07:13:50.494Z,33.5615
2023-04-18T07:14:52.826Z,32.7923
2023-04-18T07:15:55.164Z,34.9692
2023-04-18T07:16:57.667Z,33.7769
2023-04-18T07:17:59.895Z,34.9000
2023-04-18T07:19:02.192Z,34.7692
2023-04-18T07:20:04.519Z,34.3308
2023-04-18T07:21:06.852Z,33.6769
2023-04-18T07:22:09.189Z,34.0769
2023-04-18T07:23:11.524Z,35.1000
2023-04-18T07:24:14.273Z,34.1538
2023-04-18T07:25:16.220Z,33.9083
2023-04-18T07:26:18.546Z,33.4923
2023-04-18T07:27:20.880Z,32.9231
2023-04-18T07:28:23.235Z,32.5308
2023-04-18T07:29:25.564Z,33.0231
2023-04-18T07:30:27.960Z,34.1154
2023-04-18T07:31:30.357Z,34.0462
2023-04-18T07:32:32.640Z,34.5692
2023-04-18T07:33:34.929Z,33.3692
2023-04-18T07:34:37.272Z,33.8000
2023-04-18T07:35:39.592Z,34.2923
2023-04-18T07:36:41.926Z,31.9385
2023-04-18T07:37:44.269Z,33.4923
2023-04-18T07:38:46.608Z,33.0462
2023-04-18T07:39:48.948Z,33.4462
2023-04-18T07:40:51.279Z,32.5231
2023-04-18T07:41:53.618Z,32.1000
2023-04-18T07:42:55.955Z,33.4615
2023-04-18T07:43:58.303Z,33.3923
2023-04-18T07:45:00.645Z,34.2846
2023-04-18T07:46:03.091Z,33.6308
2023-04-18T07:47:05.313Z,33.5923
2023-04-18T07:48:07.800Z,33.4077
2023-04-18T07:49:09.984Z,33.7769
2023-04-18T07:50:12.332Z,33.2846
2023-04-18T07:51:14.666Z,35.7308
2023-04-18T07:52:17.077Z,38.7615
2023-04-18T07:53:19.430Z,38.0000
2023-04-18T07:54:21.764Z,36.8538
2023-04-18T07:55:24.095Z,36.1077
2023-04-18T07:56:26.442Z,34.5231
2023-04-18T07:57:28.761Z,35.0000
2023-04-18T07:58:31.105Z,36.1385
2023-04-18T07:59:33.441Z,35.6385
2023-04-18T08:00:35.767Z,33.5077
2023-04-18T08:01:38.114Z,33.9846
2023-04-18T08:02:40.571Z,35.3462
2023-04-18T08:03:43.097Z,35.0500
2023-04-18T08:04:45.312Z,36.4417
2023-04-18T08:05:47.467Z,35.9462
2023-04-18T08:06:49.795Z,33.7462
2023-04-18T08:07:52.136Z,35.1692
2023-04-18T08:08:54.476Z,33.0462
2023-04-18T08:09:56.916Z,32.6385
2023-04-18T08:10:59.152Z,33.7923
2023-04-18T08:12:01.492Z,34.7538
2023-04-18T08:13:03.823Z,35.3692
2023-04-18T08:14:06.174Z,33.4846
2023-04-18T08:15:08.542Z,34.3154
2023-04-18T08:16:10.904Z,34.0154
2023-04-18T08:17:13.191Z,31.8154
2023-04-18T08:18:15.527Z,32.9462
2023-04-18T08:19:17.910Z,35.4231
2023-04-18T08:20:20.217Z,32.6769
2023-04-18T08:21:22.549Z,34.2538
2023-04-18T08:22:24.887Z,34.8000
2023-04-18T08:23:27.221Z,34.2923
2023-04-18T08:24:29.572Z,32.6769
2023-04-18T08:25:31.914Z,33.3692
2023-04-18T08:26:34.246Z,33.2231
2023-04-18T08:27:36.591Z,32.9231
2023-04-18T08:28:38.912Z,33.5462
2023-04-18T08:29:41.255Z,32.7923
2023-04-18T08:30:43.595Z,36.3538
2023-04-18T08:31:45.988Z,36.1000
2023-04-18T08:32:48.312Z,36.2462
2023-04-18T08:33:50.617Z,34.3231
2023-04-18T08:34:52.967Z,31.5538
2023-04-18T08:35:55.296Z,36.5846
2023-04-18T08:36:57.662Z,35.3538
2023-04-18T08:37:59.980Z,38.1846
2023-04-18T08:39:02.326Z,36.5615
2023-04-18T08:40:04.665Z,34.1615
2023-04-18T08:41:06.996Z,34.8846
2023-04-18T08:42:09.346Z,36.1308
2023-04-18T08:43:11.690Z,35.3923
2023-04-18T08:44:14.138Z,36.7077
2023-04-18T08:45:16.403Z,37.7231
2023-04-18T08:46:18.727Z,34.5308
2023-04-18T08:47:21.072Z,34.4769
2023-04-18T08:48:23.398Z,34.5000
2023-04-18T08:49:25.747Z,35.6154
2023-04-18T08:50:28.072Z,36.7923
2023-04-18T08:51:30.444Z,35.8308
2023-04-18T08:52:32.754Z,35.6692
2023-04-18T08:53:35.121Z,34.8154
2023-04-18T08:54:37.453Z,35.6538
2023-04-18T08:55:39.778Z,34.7231
2023-04-18T08:56:42.147Z,34.3462
2023-04-18T08:57:44.461Z,34.1846
2023-04-18T08:58:46.813Z,35.6308
2023-04-18T08:59:50.969Z,34.2846
2023-04-18T09:00:51.536Z,35.3417
2023-04-18T09:01:53.851Z,35.8769
2023-04-18T09:02:56.442Z,34.2615
2023-04-18T09:03:58.580Z,32.9917
2023-04-18T09:05:00.882Z,31.0077
2023-04-18T09:06:03.254Z,32.9538
2023-04-18T09:07:05.539Z,33.2846
2023-04-18T09:08:07.886Z,32.5077
2023-04-18T09:09:10.232Z,31.3923
2023-04-18T09:10:12.681Z,31.7385
2023-04-18T09:11:14.923Z,31.6385
2023-04-18T09:12:17.257Z,33.9692
2023-04-18T09:13:19.627Z,33.6154
2023-04-18T09:14:21.940Z,33.6385
2023-04-18T09:15:24.302Z,35.2385
2023-04-18T09:16:26.727Z,33.3923
2023-04-18T09:17:29.013Z,34.6154
2023-04-18T09:18:31.313Z,33.5231
2023-04-18T09:19:33.652Z,33.4692
2023-04-18T09:20:36.067Z,35.8692
2023-04-18T09:21:38.357Z,33.6769
2023-04-18T09:22:40.677Z,34.0154
2023-04-18T09:23:43.016Z,32.9308
2023-04-18T09:24:45.359Z,32.4000
2023-04-18T09:25:47.700Z,32.0231
2023-04-18T09:26:50.057Z,31.6846
2023-04-18T09:27:52.380Z,33.0846
2023-04-18T09:28:54.707Z,33.2231
2023-04-18T09:29:57.993Z,32.6077
2023-04-18T09:30:59.462Z,32.8583
2023-04-18T09:32:01.776Z,33.2231
2023-04-18T09:33:04.130Z,34.4769
2023-04-18T09:34:06.407Z,33.9000
2023-04-18T09:35:08.760Z,34.1000
2023-04-18T09:36:11.092Z,33.9077
2023-04-18T09:37:13.685Z,31.7385
2023-04-18T09:38:15.761Z,31.8167
2023-04-18T09:39:18.115Z,34.0000
2023-04-18T09:40:20.451Z,32.2615
2023-04-18T09:41:22.781Z,33.1154
2023-04-18T09:42:27.401Z,33.0462
2023-04-18T09:43:27.459Z,32.3000
2023-04-18T09:44:29.804Z,33.2154
2023-04-18T09:45:32.133Z,34.8385
2023-04-18T09:46:34.645Z,34.1692
2023-04-18T09:47:36.969Z,33.6308
2023-04-18T09:48:39.152Z,32.1385
2023-04-18T09:49:41.496Z,31.5462
2023-04-18T09:50:43.820Z,33.3077
2023-04-18T09:51:46.256Z,34.3154
2023-04-18T09:52:48.515Z,31.9769
2023-04-18T09:53:50.857Z,31.9000
2023-04-18T09:54:53.182Z,34.5769
2023-04-18T09:55:57.631Z,33.4385
2023-04-18T09:56:57.862Z,33.6417
2023-04-18T09:58:00.201Z,33.9308
2023-04-18T09:59:02.534Z,33.5462
2023-04-18T10:00:04.865Z,33.9231
2023-04-18T10:01:07.208Z,31.3462
2023-04-18T10:02:09.641Z,31.6923
2023-04-18T10:03:12.083Z,32.1385
2023-04-18T10:04:14.596Z,32.6000
2023-04-18T10:05:17.613Z,32.5917
2023-04-18T10:06:18.913Z,32.9083
2023-04-18T10:07:21.240Z,32.3538
2023-04-18T10:08:23.585Z,32.8538
2023-04-18T10:09:25.921Z,32.7769
2023-04-18T10:10:28.264Z,33.8692
2023-04-18T10:11:30.587Z,32.2231
2023-04-18T10:12:32.925Z,32.9231
2023-04-18T10:13:35.268Z,33.5385
2023-04-18T10:14:37.611Z,33.6923
2023-04-18T10:15:41.148Z,33.4769
2023-04-18T10:16:42.351Z,34.7750
2023-04-18T10:17:56.069Z,31.9923
2023-04-18T10:18:46.979Z,32.8091
2023-04-18T10:19:49.302Z,32.7769
2023-04-18T10:20:51.646Z,31.8538
2023-04-18T10:21:53.986Z,32.8846
2023-04-18T10:22:56.323Z,32.6385
2023-04-18T10:23:58.777Z,30.1615
2023-04-18T10:25:01.005Z,29.0769
2023-04-18T10:26:03.347Z,27.8308
2023-04-18T10:27:05.699Z,28.3385
2023-04-18T10:28:08.058Z,31.0923
2023-04-18T10:29:10.409Z,32.8769
2023-04-18T10:30:12.732Z,32.7769
2023-04-18T10:31:15.108Z,33.3769
2023-04-18T10:32:17.422Z,33.6923
2023-04-18T10:33:30.297Z,33.2615
2023-04-18T10:34:22.330Z,31.7273
2023-04-18T10:35:24.473Z,31.2917
2023-04-18T10:36:26.825Z,31.8385
2023-04-18T10:37:29.142Z,32.8231
2023-04-18T10:38:31.483Z,33.6154
2023-04-18T10:39:33.843Z,31.0308
2023-04-18T10:40:36.170Z,30.3692
2023-04-18T10:41:38.559Z,32.1769
2023-04-18T10:42:40.856Z,31.0077
2023-04-18T10:43:43.202Z,31.8692
2023-04-18T10:44:45.549Z,29.7308
2023-04-18T10:45:47.892Z,30.4846
2023-04-18T10:46:50.282Z,31.8923
2023-04-18T10:47:52.671Z,31.7154
2023-04-18T10:48:54.924Z,30.1000
2023-04-18T10:49:57.262Z,30.7154
2023-04-18T10:50:59.599Z,32.4923
2023-04-18T10:52:02.213Z,31.0846
2023-04-18T10:53:04.292Z,31.5250
2023-04-18T10:54:06.638Z,31.3231
2023-04-18T10:55:08.987Z,31.4231
2023-04-18T10:56:11.312Z,32.6154
2023-04-18T10:57:13.667Z,31.3385
2023-04-18T10:58:15.992Z,31.3000
2023-04-18T10:59:18.331Z,33.0000
2023-04-18T11:00:20.742Z,30.1846
2023-04-18T11:01:23.068Z,30.7154
2023-04-18T11:02:25.542Z,29.6000
2023-04-18T11:03:27.765Z,29.0077
2023-04-18T11:04:30.137Z,28.8462
2023-04-18T11:05:32.433Z,28.7385
2023-04-18T11:06:34.746Z,27.9923
2023-04-18T11:07:37.095Z,26.5462
2023-04-18T11:08:39.443Z,24.6615
2023-04-18T11:09:42.599Z,25.2308
2023-04-18T11:10:44.127Z,24.3583
2023-04-18T11:11:46.466Z,22.3154
2023-04-18T11:12:48.830Z,20.2615
2023-04-18T11:13:51.164Z,20.6923
2023-04-18T11:14:53.500Z,18.5000
2023-04-18T11:15:55.844Z,20.9231
2023-04-18T11:16:58.256Z,22.8769
2023-04-18T11:18:00.616Z,25.8231
2023-04-18T11:19:02.873Z,23.3231
2023-04-18T11:20:05.224Z,26.7154
2023-04-18T11:21:07.564Z,28.6077
2023-04-18T11:22:09.913Z,26.4000
2023-04-18T11:23:12.264Z,24.9615
2023-04-18T11:24:14.706Z,23.2077
2023-04-18T11:25:16.981Z,21.7154
2023-04-18T11:26:19.375Z,20.2077
2023-04-18T11:27:21.629Z,19.9615
2023-04-18T11:28:24.012Z,20.1462
2023-04-18T11:29:26.323Z,19.0538
2023-04-18T11:30:28.673Z,19.0077
2023-04-18T11:31:31.028Z,22.1231
2023-04-18T11:32:33.403Z,25.0231
2023-04-18T11:33:35.755Z,25.1538
2023-04-18T11:34:38.051Z,26.8538
2023-04-18T11:35:40.391Z,25.7615
2023-04-18T11:36:42.742Z,27.5538
2023-04-18T11:37:45.132Z,27.4000
2023-04-18T11:38:47.429Z,28.0615
2023-04-18T11:39:49.778Z,26.8846
2023-04-18T11:40:52.110Z,29.4231
2023-04-18T11:41:54.469Z,31.1308
2023-04-18T11:42:56.815Z,30.3615
2023-04-18T11:43:59.160Z,29.9769
2023-04-18T11:45:01.501Z,28.7308
2023-04-18T11:46:03.872Z,27.4154
2023-04-18T11:47:06.179Z,28.3385
2023-04-18T11:48:08.567Z,30.4154
2023-04-18T11:49:10.876Z,31.4000
2023-04-18T11:50:13.239Z,29.8615
2023-04-18T11:51:15.567Z,27.5538
2023-04-18T11:52:17.908Z,27.2308
2023-04-18T11:53:20.290Z,24.9692
2023-04-18T11:54:22.602Z,20.0385
2023-04-18T11:55:24.955Z,15.8077
2023-04-18T11:56:27.291Z,13.3077
2023-04-18T11:57:29.732Z,10.8077
2023-04-18T11:58:32.074Z,8.8308
2023-04-18T11:59:34.433Z,9.3231
2023-04-18T12:00:36.752Z,9.2077
2023-04-18T12:01:39.101Z,8.4308
2023-04-18T12:02:41.657Z,8.4923
2023-04-18T12:03:44.125Z,7.0167
2023-04-18T12:04:46.344Z,7.3333
2023-04-18T12:05:48.759Z,7.0167
2023-04-18T12:06:50.855Z,6.9667
2023-04-18T12:07:53.189Z,7.7308
2023-04-18T12:08:55.541Z,7.4692
2023-04-18T12:09:57.882Z,7.6154
2023-04-18T12:11:00.228Z,7.3462
2023-04-18T12:12:02.587Z,6.6692
2023-04-18T12:13:04.947Z,7.6846
2023-04-18T12:14:07.278Z,10.7923
2023-04-18T12:15:09.620Z,8.4462
2023-04-18T12:16:11.979Z,8.3538
2023-04-18T12:17:14.342Z,8.5692
2023-04-18T12:18:16.665Z,7.4923
2023-04-18T12:19:19.010Z,8.3308
2023-04-18T12:20:21.357Z,7.9615
2023-04-18T12:21:23.710Z,8.7538
2023-04-18T12:22:26.053Z,7.2000
2023-04-18T12:23:28.420Z,7.3615
2023-04-18T12:24:30.752Z,7.2846
2023-04-18T12:25:33.100Z,7.1231
2023-04-18T12:26:35.444Z,7.5692
2023-04-18T12:27:37.790Z,7.5692
2023-04-18T12:28:40.141Z,7.0692
2023-04-18T12:29:42.512Z,6.9077
2023-04-18T12:30:44.842Z,8.1154
2023-04-18T12:31:47.260Z,8.6154
2023-04-18T12:32:49.628Z,7.0462
2023-04-18T12:33:51.889Z,6.7462
2023-04-18T12:34:54.252Z,6.5615